ADC006 SKCC-SKCG
Flight info
| Callsign | ADC006 |
|---|---|
| Flight time | 0h 44m |
| Altitude | 26000 |
| Route | DIMI6A DIMIL ELB MGN W10 UGREB UGRE3B |
| Aircraft | A320/M-SKBO/2200 |
Departure
| Time | 2026-04-17 15:11 |
|---|---|
| Airport | Camilo Daza International Airport (SKCC) |
Arrival
| Time | 2026-04-17 15:55 |
|---|---|
| Airport | Rafael Nuñez International Airport (SKCG) |
| Time | Latitude | Longitude | Altitude | Speed | Heading |
|---|---|---|---|---|---|
| 2026-04-17 15:02 | 7.92812 | -72.50870 | 1110 ft | 0 kts | 206° |
| 2026-04-17 15:03 | 7.92814 | -72.50869 | 1110 ft | 1 kts | 206° |
| 2026-04-17 15:04 | 7.92827 | -72.50861 | 1110 ft | 3 kts | 219° |
| 2026-04-17 15:04 | 7.92840 | -72.50846 | 1110 ft | 3 kts | 239° |
| 2026-04-17 15:04 | 7.92847 | -72.50827 | 1110 ft | 3 kts | 259° |
| 2026-04-17 15:04 | 7.92847 | -72.50807 | 1110 ft | 3 kts | 278° |
| 2026-04-17 15:05 | 7.92842 | -72.50787 | 1110 ft | 3 kts | 294° |
| 2026-04-17 15:05 | 7.92839 | -72.50781 | 1110 ft | 0 kts | 296° |
| 2026-04-17 15:06 | 7.92839 | -72.50782 | 1110 ft | 0 kts | 296° |
| 2026-04-17 15:07 | 7.92852 | -72.50809 | 1110 ft | 15 kts | 295° |
| 2026-04-17 15:07 | 7.92849 | -72.50886 | 1110 ft | 6 kts | 244° |
| 2026-04-17 15:08 | 7.92797 | -72.50973 | 1110 ft | 19 kts | 242° |
| 2026-04-17 15:08 | 7.92698 | -72.51033 | 1110 ft | 18 kts | 194° |
| 2026-04-17 15:08 | 7.92571 | -72.51049 | 1110 ft | 18 kts | 164° |
| 2026-04-17 15:08 | 7.92456 | -72.50988 | 1110 ft | 19 kts | 147° |
| 2026-04-17 15:09 | 7.92346 | -72.50920 | 1110 ft | 17 kts | 146° |
| 2026-04-17 15:09 | 7.92270 | -72.50846 | 1110 ft | 11 kts | 159° |
| 2026-04-17 15:09 | 7.92255 | -72.50872 | 1110 ft | 4 kts | 324° |
| 2026-04-17 15:09 | 7.92343 | -72.50918 | 1110 ft | 26 kts | 329° |
| 2026-04-17 15:10 | 7.92778 | -72.51181 | 1110 ft | 118 kts | 328° |
| 2026-04-17 15:10 | 7.93675 | -72.51734 | 1394 ft | 161 kts | 328° |
| 2026-04-17 15:10 | 7.94731 | -72.52385 | 1656 ft | 206 kts | 328° |
| 2026-04-17 15:11 | 7.97540 | -72.53691 | 2365 ft | 240 kts | 352° |
| 2026-04-17 15:11 | 7.99233 | -72.53498 | 2851 ft | 252 kts | 12° |
| 2026-04-17 15:11 | 8.00925 | -72.52990 | 3318 ft | 253 kts | 17° |
| 2026-04-17 15:11 | 8.02616 | -72.52500 | 3768 ft | 252 kts | 15° |
| 2026-04-17 15:12 | 8.04318 | -72.52126 | 4215 ft | 251 kts | 11° |
| 2026-04-17 15:12 | 8.06052 | -72.51874 | 4670 ft | 250 kts | 6° |
| 2026-04-17 15:12 | 8.07785 | -72.51728 | 5120 ft | 251 kts | 3° |
| 2026-04-17 15:12 | 8.09537 | -72.51659 | 5568 ft | 253 kts | 0° |
| 2026-04-17 15:13 | 8.11320 | -72.51644 | 6024 ft | 257 kts | 359° |
| 2026-04-17 15:13 | 8.13117 | -72.51662 | 6477 ft | 259 kts | 358° |
| 2026-04-17 15:13 | 8.14928 | -72.51701 | 6929 ft | 261 kts | 358° |
| 2026-04-17 15:13 | 8.16719 | -72.51931 | 7355 ft | 262 kts | 343° |
| 2026-04-17 15:14 | 8.18288 | -72.52873 | 7809 ft | 265 kts | 318° |
| 2026-04-17 15:14 | 8.19321 | -72.54405 | 8263 ft | 268 kts | 294° |
| 2026-04-17 15:14 | 8.19635 | -72.56249 | 8716 ft | 272 kts | 270° |
| 2026-04-17 15:14 | 8.19156 | -72.58110 | 9174 ft | 276 kts | 246° |
| 2026-04-17 15:15 | 8.17978 | -72.59630 | 9636 ft | 280 kts | 225° |
| 2026-04-17 15:15 | 8.16456 | -72.60898 | 9920 ft | 287 kts | 219° |
| 2026-04-17 15:15 | 8.14909 | -72.62191 | 9983 ft | 290 kts | 221° |
| 2026-04-17 15:15 | 8.13456 | -72.63626 | 10099 ft | 284 kts | 226° |
| 2026-04-17 15:16 | 8.12199 | -72.65147 | 10625 ft | 297 kts | 231° |
| 2026-04-17 15:16 | 8.10942 | -72.66946 | 11170 ft | 329 kts | 236° |
| 2026-04-17 15:16 | 8.09860 | -72.69115 | 11699 ft | 360 kts | 251° |
| 2026-04-17 15:16 | 8.09456 | -72.71690 | 12241 ft | 382 kts | 270° |
| 2026-04-17 15:17 | 8.09842 | -72.74364 | 12774 ft | 392 kts | 287° |
| 2026-04-17 15:17 | 8.10980 | -72.76878 | 13323 ft | 396 kts | 301° |
| 2026-04-17 15:17 | 8.12568 | -72.79161 | 13862 ft | 397 kts | 309° |
| 2026-04-17 15:17 | 8.14360 | -72.81293 | 14393 ft | 398 kts | 311° |
| 2026-04-17 15:18 | 8.16232 | -72.83350 | 14919 ft | 399 kts | 313° |
| 2026-04-17 15:18 | 8.18132 | -72.85395 | 15445 ft | 400 kts | 313° |
| 2026-04-17 15:18 | 8.20016 | -72.87443 | 15967 ft | 402 kts | 313° |
| 2026-04-17 15:18 | 8.21905 | -72.89545 | 16495 ft | 404 kts | 312° |
| 2026-04-17 15:19 | 8.23776 | -72.91688 | 17023 ft | 407 kts | 311° |
| 2026-04-17 15:19 | 8.25618 | -72.93859 | 17548 ft | 409 kts | 310° |
| 2026-04-17 15:19 | 8.27461 | -72.96088 | 18078 ft | 412 kts | 310° |
| 2026-04-17 15:19 | 8.29291 | -72.98349 | 18608 ft | 415 kts | 309° |
| 2026-04-17 15:20 | 8.31093 | -73.00617 | 19132 ft | 418 kts | 309° |
| 2026-04-17 15:20 | 8.32915 | -73.02935 | 19660 ft | 421 kts | 307° |
| 2026-04-17 15:20 | 8.34713 | -73.05251 | 20182 ft | 425 kts | 306° |
| 2026-04-17 15:20 | 8.36541 | -73.07628 | 20712 ft | 427 kts | 306° |
| 2026-04-17 15:21 | 8.38359 | -73.10007 | 21239 ft | 430 kts | 306° |
| 2026-04-17 15:21 | 8.40198 | -73.12419 | 21768 ft | 432 kts | 306° |
| 2026-04-17 15:21 | 8.42019 | -73.14803 | 22290 ft | 434 kts | 307° |
| 2026-04-17 15:21 | 8.43887 | -73.17247 | 22821 ft | 437 kts | 307° |
| 2026-04-17 15:22 | 8.45734 | -73.19662 | 23344 ft | 439 kts | 307° |
| 2026-04-17 15:22 | 8.47622 | -73.22130 | 23875 ft | 441 kts | 307° |
| 2026-04-17 15:22 | 8.49512 | -73.24601 | 24405 ft | 443 kts | 307° |
| 2026-04-17 15:22 | 8.51390 | -73.27056 | 24923 ft | 446 kts | 304° |
| 2026-04-17 15:23 | 8.53304 | -73.29547 | 25440 ft | 447 kts | 304° |
| 2026-04-17 15:23 | 8.55206 | -73.32029 | 25897 ft | 447 kts | 304° |
| 2026-04-17 15:23 | 8.57119 | -73.34530 | 26019 ft | 448 kts | 304° |
| 2026-04-17 15:23 | 8.59031 | -73.37030 | 26055 ft | 447 kts | 304° |
| 2026-04-17 15:24 | 8.60909 | -73.39487 | 26055 ft | 446 kts | 304° |
| 2026-04-17 15:24 | 8.62811 | -73.41976 | 26053 ft | 444 kts | 304° |
| 2026-04-17 15:24 | 8.64701 | -73.44450 | 26052 ft | 444 kts | 304° |
| 2026-04-17 15:24 | 8.66571 | -73.46898 | 26052 ft | 443 kts | 304° |
| 2026-04-17 15:25 | 8.68455 | -73.49367 | 26052 ft | 443 kts | 304° |
| 2026-04-17 15:25 | 8.70328 | -73.51820 | 26052 ft | 442 kts | 304° |
| 2026-04-17 15:25 | 8.72225 | -73.54306 | 26052 ft | 441 kts | 304° |
| 2026-04-17 15:25 | 8.74097 | -73.56759 | 26052 ft | 441 kts | 304° |
| 2026-04-17 15:26 | 8.75968 | -73.59212 | 26052 ft | 441 kts | 304° |
| 2026-04-17 15:26 | 8.77831 | -73.61655 | 26052 ft | 441 kts | 304° |
| 2026-04-17 15:26 | 8.79091 | -73.63307 | 26051 ft | 441 kts | 303° |
| 2026-04-17 15:26 | 8.80982 | -73.65787 | 26046 ft | 444 kts | 303° |
| 2026-04-17 15:27 | 8.83497 | -73.69090 | 26048 ft | 447 kts | 303° |
| 2026-04-17 15:27 | 8.85384 | -73.71567 | 26049 ft | 448 kts | 303° |
| 2026-04-17 15:27 | 8.86651 | -73.73230 | 26051 ft | 447 kts | 303° |
| 2026-04-17 15:27 | 8.88555 | -73.75729 | 26052 ft | 446 kts | 304° |
| 2026-04-17 15:28 | 8.90443 | -73.78207 | 26052 ft | 445 kts | 304° |
| 2026-04-17 15:28 | 8.92337 | -73.80692 | 26052 ft | 444 kts | 304° |
| 2026-04-17 15:28 | 8.94237 | -73.83186 | 26046 ft | 444 kts | 304° |
| 2026-04-17 15:28 | 8.96109 | -73.85648 | 26033 ft | 451 kts | 304° |
| 2026-04-17 15:29 | 8.98042 | -73.88197 | 26031 ft | 458 kts | 307° |
| 2026-04-17 15:29 | 9.00003 | -73.90780 | 26031 ft | 463 kts | 307° |
| 2026-04-17 15:29 | 9.01982 | -73.93382 | 26031 ft | 467 kts | 306° |
| 2026-04-17 15:29 | 9.03749 | -73.96126 | 26031 ft | 468 kts | 297° |
| 2026-04-17 15:30 | 9.05166 | -73.99107 | 26036 ft | 468 kts | 291° |
| 2026-04-17 15:30 | 9.06331 | -74.02178 | 26038 ft | 469 kts | 288° |
| 2026-04-17 15:30 | 9.07354 | -74.05339 | 26037 ft | 469 kts | 285° |
| 2026-04-17 15:30 | 9.08268 | -74.08485 | 26036 ft | 469 kts | 284° |
| 2026-04-17 15:31 | 9.09129 | -74.11650 | 26032 ft | 469 kts | 283° |
| 2026-04-17 15:31 | 9.09974 | -74.14872 | 26031 ft | 469 kts | 283° |
| 2026-04-17 15:31 | 9.10795 | -74.18053 | 26030 ft | 470 kts | 283° |
| 2026-04-17 15:31 | 9.11621 | -74.21267 | 26028 ft | 470 kts | 283° |
| 2026-04-17 15:32 | 9.12444 | -74.24459 | 26027 ft | 470 kts | 283° |
| 2026-04-17 15:32 | 9.13281 | -74.27684 | 26026 ft | 470 kts | 283° |
| 2026-04-17 15:32 | 9.14107 | -74.30838 | 26027 ft | 470 kts | 282° |
| 2026-04-17 15:32 | 9.14951 | -74.34035 | 26031 ft | 469 kts | 282° |
| 2026-04-17 15:33 | 9.15802 | -74.37235 | 26032 ft | 469 kts | 282° |
| 2026-04-17 15:33 | 9.16653 | -74.40414 | 26033 ft | 469 kts | 283° |
| 2026-04-17 15:33 | 9.17512 | -74.43609 | 26033 ft | 469 kts | 283° |
| 2026-04-17 15:33 | 9.18378 | -74.46811 | 26033 ft | 469 kts | 283° |
| 2026-04-17 15:34 | 9.19239 | -74.49985 | 26033 ft | 469 kts | 283° |
| 2026-04-17 15:34 | 9.20100 | -74.53151 | 26033 ft | 469 kts | 283° |
| 2026-04-17 15:34 | 9.20968 | -74.56330 | 26035 ft | 468 kts | 282° |
| 2026-04-17 15:34 | 9.21831 | -74.59487 | 26035 ft | 467 kts | 282° |
| 2026-04-17 15:35 | 9.22708 | -74.62696 | 26035 ft | 467 kts | 282° |
| 2026-04-17 15:35 | 9.23568 | -74.65837 | 26035 ft | 467 kts | 282° |
| 2026-04-17 15:35 | 9.24434 | -74.69003 | 26034 ft | 467 kts | 283° |
| 2026-04-17 15:35 | 9.25297 | -74.72158 | 26034 ft | 467 kts | 283° |
| 2026-04-17 15:36 | 9.26166 | -74.75333 | 26034 ft | 467 kts | 283° |
| 2026-04-17 15:36 | 9.27040 | -74.78526 | 26036 ft | 466 kts | 282° |
| 2026-04-17 15:36 | 9.27948 | -74.81679 | 26034 ft | 467 kts | 286° |
| 2026-04-17 15:36 | 9.29422 | -74.84623 | 26036 ft | 473 kts | 301° |
| 2026-04-17 15:37 | 9.31506 | -74.87219 | 26044 ft | 477 kts | 311° |
| 2026-04-17 15:37 | 9.33947 | -74.89500 | 25970 ft | 480 kts | 317° |
| 2026-04-17 15:37 | 9.36607 | -74.91572 | 25375 ft | 483 kts | 323° |
| 2026-04-17 15:37 | 9.39360 | -74.93443 | 24769 ft | 476 kts | 324° |
| 2026-04-17 15:38 | 9.42167 | -74.95185 | 24159 ft | 465 kts | 326° |
| 2026-04-17 15:38 | 9.44915 | -74.96811 | 23544 ft | 456 kts | 327° |
| 2026-04-17 15:38 | 9.47629 | -74.98421 | 22918 ft | 447 kts | 326° |
| 2026-04-17 15:38 | 9.50278 | -75.00105 | 22284 ft | 439 kts | 324° |
| 2026-04-17 15:39 | 9.52806 | -75.01801 | 21660 ft | 433 kts | 324° |
| 2026-04-17 15:39 | 9.55249 | -75.03497 | 21040 ft | 427 kts | 323° |
| 2026-04-17 15:39 | 9.57680 | -75.05222 | 20412 ft | 422 kts | 323° |
| 2026-04-17 15:39 | 9.60061 | -75.06932 | 19786 ft | 417 kts | 323° |
| 2026-04-17 15:40 | 9.62421 | -75.08639 | 19157 ft | 412 kts | 322° |
| 2026-04-17 15:40 | 9.64715 | -75.10300 | 18538 ft | 406 kts | 322° |
| 2026-04-17 15:40 | 9.67020 | -75.11970 | 17907 ft | 401 kts | 322° |
| 2026-04-17 15:40 | 9.69256 | -75.13587 | 17287 ft | 396 kts | 322° |
| 2026-04-17 15:41 | 9.71493 | -75.15188 | 16662 ft | 392 kts | 323° |
| 2026-04-17 15:41 | 9.73726 | -75.16745 | 16036 ft | 387 kts | 324° |
| 2026-04-17 15:41 | 9.75959 | -75.18273 | 15408 ft | 383 kts | 324° |
| 2026-04-17 15:41 | 9.78185 | -75.19778 | 14777 ft | 380 kts | 324° |
| 2026-04-17 15:42 | 9.80363 | -75.21240 | 14155 ft | 376 kts | 325° |
| 2026-04-17 15:42 | 9.82535 | -75.22691 | 13531 ft | 372 kts | 325° |
| 2026-04-17 15:42 | 9.84691 | -75.24130 | 12905 ft | 368 kts | 326° |
| 2026-04-17 15:42 | 9.86812 | -75.25547 | 12282 ft | 365 kts | 327° |
| 2026-04-17 15:43 | 9.88923 | -75.26955 | 11656 ft | 361 kts | 327° |
| 2026-04-17 15:43 | 9.91021 | -75.28357 | 11028 ft | 358 kts | 327° |
| 2026-04-17 15:43 | 9.93084 | -75.29736 | 10405 ft | 355 kts | 327° |
| 2026-04-17 15:43 | 9.95140 | -75.31085 | 10074 ft | 344 kts | 327° |
| 2026-04-17 15:44 | 9.97044 | -75.32438 | 10047 ft | 325 kts | 324° |
| 2026-04-17 15:44 | 9.98800 | -75.33818 | 10039 ft | 307 kts | 322° |
| 2026-04-17 15:44 | 10.00430 | -75.35149 | 9626 ft | 308 kts | 322° |
| 2026-04-17 15:44 | 10.02063 | -75.36500 | 8977 ft | 296 kts | 321° |
| 2026-04-17 15:45 | 10.03638 | -75.37806 | 8277 ft | 288 kts | 321° |
| 2026-04-17 15:45 | 10.05186 | -75.39090 | 7569 ft | 282 kts | 321° |
| 2026-04-17 15:45 | 10.06691 | -75.40338 | 6869 ft | 277 kts | 321° |
| 2026-04-17 15:45 | 10.08161 | -75.41552 | 6173 ft | 272 kts | 321° |
| 2026-04-17 15:46 | 10.09618 | -75.42748 | 5473 ft | 268 kts | 321° |
| 2026-04-17 15:46 | 10.11063 | -75.43928 | 4772 ft | 264 kts | 321° |
| 2026-04-17 15:46 | 10.12501 | -75.45099 | 4066 ft | 261 kts | 321° |
| 2026-04-17 15:46 | 10.13900 | -75.46241 | 3372 ft | 260 kts | 322° |
| 2026-04-17 15:47 | 10.15275 | -75.47382 | 3019 ft | 244 kts | 321° |
| 2026-04-17 15:47 | 10.16506 | -75.48414 | 3001 ft | 216 kts | 321° |
| 2026-04-17 15:47 | 10.17615 | -75.49314 | 2988 ft | 189 kts | 324° |
| 2026-04-17 15:47 | 10.18673 | -75.49989 | 2990 ft | 173 kts | 330° |
| 2026-04-17 15:48 | 10.19701 | -75.50583 | 2996 ft | 168 kts | 332° |
| 2026-04-17 15:48 | 10.20721 | -75.51149 | 3000 ft | 166 kts | 333° |
| 2026-04-17 15:48 | 10.21737 | -75.51675 | 3007 ft | 164 kts | 336° |
| 2026-04-17 15:48 | 10.22823 | -75.51987 | 3004 ft | 162 kts | 349° |
| 2026-04-17 15:49 | 10.23952 | -75.52095 | 3009 ft | 163 kts | 357° |
| 2026-04-17 15:49 | 10.25086 | -75.52115 | 3004 ft | 163 kts | 0° |
| 2026-04-17 15:49 | 10.26215 | -75.52095 | 3000 ft | 163 kts | 2° |
| 2026-04-17 15:49 | 10.27349 | -75.52054 | 3000 ft | 163 kts | 2° |
| 2026-04-17 15:50 | 10.28525 | -75.52003 | 2792 ft | 172 kts | 2° |
| 2026-04-17 15:50 | 10.29707 | -75.51941 | 2562 ft | 170 kts | 2° |
| 2026-04-17 15:50 | 10.30892 | -75.51880 | 2343 ft | 168 kts | 2° |
| 2026-04-17 15:50 | 10.32042 | -75.51828 | 2137 ft | 166 kts | 2° |
| 2026-04-17 15:51 | 10.33190 | -75.51778 | 1922 ft | 162 kts | 2° |
| 2026-04-17 15:51 | 10.34292 | -75.51726 | 1707 ft | 154 kts | 2° |
| 2026-04-17 15:51 | 10.35333 | -75.51676 | 1498 ft | 146 kts | 2° |
| 2026-04-17 15:51 | 10.35442 | -75.51671 | 1477 ft | 145 kts | 2° |
| 2026-04-17 15:53 | 10.36144 | -75.51647 | 1340 ft | 142 kts | 3° |
| 2026-04-17 15:53 | 10.37126 | -75.51620 | 1149 ft | 140 kts | 2° |
| 2026-04-17 15:54 | 10.38096 | -75.51560 | 985 ft | 139 kts | 3° |
| 2026-04-17 15:54 | 10.39052 | -75.51508 | 810 ft | 139 kts | 2° |
| 2026-04-17 15:54 | 10.40020 | -75.51474 | 616 ft | 138 kts | 1° |
| 2026-04-17 15:54 | 10.40972 | -75.51444 | 413 ft | 137 kts | 1° |
| 2026-04-17 15:55 | 10.41910 | -75.51417 | 299 ft | 128 kts | 1° |
| 2026-04-17 15:55 | 10.42819 | -75.51357 | 127 ft | 136 kts | 4° |
| 2026-04-17 15:55 | 10.43722 | -75.51312 | 52 ft | 118 kts | 2° |
| 2026-04-17 15:55 | 10.44350 | -75.51289 | 16 ft | 44 kts | 7° |
| 2026-04-17 15:56 | 10.44449 | -75.51284 | 16 ft | 1 kts | 348° |
| 2026-04-17 15:56 | 10.44482 | -75.51291 | 16 ft | 14 kts | 348° |
| 2026-04-17 15:56 | 10.44557 | -75.51382 | 16 ft | 19 kts | 275° |
| 2026-04-17 15:56 | 10.44565 | -75.51514 | 16 ft | 19 kts | 273° |
| 2026-04-17 15:57 | 10.44567 | -75.51553 | 16 ft | 0 kts | 272° |